Leones, Argentina
Current Conditions -  °F | °C
As of 4:00 PM on Thursday 23 Oct 2014 (Local Time) from SAAR Reporting Station
Clear Clear  
Wind Chill: 88°   Ceiling: Unl
Heat Index: 88°   Visibility: 6mi
Dew Point: 63°   Wind: 12mph
Humidity: 43%   Direction: 50°NE
Pressure: 29.88"   Gusts: NA
Location:  32.65°S, 62.3°W
Report Text: SAAR 231900Z 05010KT CAVOK 31/17 Q1012
Loading
Personal Weather Stations






























Interactive Weather Map
Tropical Storm Tracking
New forecast layout! Learn more

10-Day Weather Forecast

Advertisements
Track Severe Weather on mobile